createdAt,value
2022-11-15T00:01:19.869Z,66.55
2022-11-15T00:03:26.589Z,74.28
2022-11-15T00:05:28.250Z,68.05
2022-11-15T00:07:53.914Z,65.55
2022-11-15T00:09:51.506Z,64.55
2022-11-15T00:11:53.562Z,72.88
2022-11-15T00:13:58.980Z,67.97
2022-11-15T00:16:02.219Z,65.78
2022-11-15T00:18:04.832Z,73.72
2022-11-15T00:20:06.984Z,67.45
2022-11-15T00:22:08.614Z,61.20
2022-11-15T00:24:10.464Z,63.45
2022-11-15T00:26:16.107Z,72.95
2022-11-15T00:28:17.692Z,64.53
2022-11-15T00:30:19.469Z,62.42
2022-11-15T00:32:21.052Z,65.57
2022-11-15T00:34:22.677Z,67.10
2022-11-15T00:36:24.370Z,69.18
2022-11-15T00:38:26.023Z,72.10
2022-11-15T00:40:27.676Z,69.90
2022-11-15T00:42:32.500Z,68.93
2022-11-15T00:44:34.058Z,64.63
2022-11-15T00:46:35.663Z,64.82
2022-11-15T00:48:37.786Z,62.80
2022-11-15T00:50:39.495Z,69.65
2022-11-15T00:52:41.179Z,64.53
2022-11-15T00:54:42.790Z,61.60
2022-11-15T00:56:44.498Z,60.38
2022-11-15T00:58:46.109Z,66.22
2022-11-15T01:00:47.813Z,62.85
2022-11-15T01:02:49.670Z,59.47
2022-11-15T01:04:51.293Z,57.53
2022-11-15T01:06:52.944Z,57.25
2022-11-15T01:08:54.539Z,59.00
2022-11-15T01:11:04.849Z,61.40
2022-11-15T01:13:06.605Z,61.70
2022-11-15T01:15:08.750Z,65.10
2022-11-15T01:17:10.484Z,59.22
2022-11-15T01:19:12.481Z,59.33
2022-11-15T01:21:17.536Z,61.60
2022-11-15T01:23:19.170Z,54.55
2022-11-15T01:25:21.007Z,61.60
2022-11-15T01:27:22.718Z,58.45
2022-11-15T01:29:24.383Z,57.15
2022-11-15T01:31:26.263Z,63.25
2022-11-15T01:33:29.440Z,61.88
2022-11-15T01:35:31.307Z,61.58
2022-11-15T01:37:33.077Z,55.30
2022-11-15T01:39:34.793Z,55.10
2022-11-15T01:41:36.419Z,61.75
2022-11-15T01:43:38.128Z,54.50
2022-11-15T01:45:39.928Z,57.65
2022-11-15T01:47:51.952Z,51.45
2022-11-15T01:50:40.762Z,53.08
2022-11-15T01:52:52.357Z,50.25
2022-11-15T01:55:31.643Z,51.60
2022-11-15T01:57:48.674Z,49.03
2022-11-15T01:59:50.530Z,49.30
2022-11-15T02:01:52.260Z,53.53
2022-11-15T02:03:59.359Z,59.70
2022-11-15T02:06:01.015Z,53.50
2022-11-15T02:08:03.019Z,58.80
2022-11-15T02:10:08.665Z,54.95
2022-11-15T02:12:11.061Z,50.83
2022-11-15T02:14:15.004Z,52.72
2022-11-15T02:18:39.625Z,61.40
2022-11-15T02:20:46.833Z,58.65
2022-11-15T02:23:19.378Z,60.65
2022-11-15T02:25:35.910Z,65.40
2022-11-15T02:27:49.988Z,61.97
2022-11-15T02:30:26.994Z,56.92
2022-11-15T02:32:39.498Z,65.97
2022-11-15T02:34:57.885Z,65.72
2022-11-15T02:37:30.567Z,58.65
2022-11-15T02:39:39.702Z,62.63
2022-11-15T02:41:48.507Z,59.92
2022-11-15T02:44:00.280Z,60.83
2022-11-15T02:46:18.805Z,60.63
2022-11-15T02:48:22.481Z,55.15
2022-11-15T02:50:27.388Z,53.83
2022-11-15T02:52:29.068Z,60.65
2022-11-15T02:54:32.881Z,54.78
2022-11-15T02:56:34.867Z,58.58
2022-11-15T02:58:50.769Z,55.97
2022-11-15T03:01:04.461Z,52.67
2022-11-15T03:03:29.228Z,68.88
2022-11-15T03:05:52.254Z,61.13
2022-11-15T03:08:02.442Z,59.72
2022-11-15T03:10:10.783Z,62.63
2022-11-15T03:12:36.676Z,67.07
2022-11-15T03:15:04.679Z,64.50
2022-11-15T03:17:25.543Z,67.28
2022-11-15T03:19:35.268Z,69.38
2022-11-15T03:21:38.634Z,60.38
2022-11-15T03:23:41.214Z,72.05
2022-11-15T03:25:47.100Z,71.82
2022-11-15T03:27:53.283Z,69.78
2022-11-15T03:29:59.353Z,81.30
2022-11-15T03:32:05.225Z,82.68
2022-11-15T03:34:09.446Z,87.88
2022-11-15T03:36:11.607Z,89.32
2022-11-15T03:38:21.302Z,93.43
2022-11-15T03:40:29.043Z,97.70
2022-11-15T03:43:01.579Z,82.20
2022-11-15T03:45:11.768Z,94.10
2022-11-15T03:47:34.282Z,86.80
2022-11-15T03:49:37.768Z,90.60
2022-11-15T03:51:39.869Z,89.70
2022-11-15T03:53:42.320Z,87.15
2022-11-15T03:55:44.034Z,90.72
2022-11-15T03:57:46.219Z,85.30
2022-11-15T03:59:47.903Z,88.68
2022-11-15T04:01:49.577Z,86.80
2022-11-15T04:03:51.349Z,92.88
2022-11-15T04:05:52.994Z,89.05
2022-11-15T04:07:54.584Z,90.20
2022-11-15T04:10:06.521Z,90.43
2022-11-15T04:12:08.165Z,90.35
2022-11-15T04:14:09.860Z,87.88
2022-11-15T04:16:11.669Z,88.38
2022-11-15T04:18:13.411Z,88.30
2022-11-15T04:20:38.192Z,86.38
2022-11-15T04:22:58.408Z,76.60
2022-11-15T04:25:00.042Z,82.05
2022-11-15T04:27:02.285Z,89.45
2022-11-15T04:29:22.282Z,85.07
2022-11-15T04:31:24.151Z,90.95
2022-11-15T04:33:26.013Z,81.53
2022-11-15T04:35:28.069Z,89.32
2022-11-15T04:37:29.739Z,89.13
2022-11-15T04:39:31.478Z,84.65
2022-11-15T04:41:33.091Z,90.55
2022-11-15T04:43:34.990Z,94.10
2022-11-15T04:45:36.825Z,96.22
2022-11-15T04:47:38.547Z,95.10
2022-11-15T04:49:40.212Z,106.88
2022-11-15T04:51:41.885Z,101.38
2022-11-15T04:53:43.790Z,98.88
2022-11-15T04:55:47.089Z,92.22
2022-11-15T04:57:48.805Z,104.07
2022-11-15T04:59:50.509Z,99.32
2022-11-15T05:01:52.218Z,107.07
2022-11-15T05:04:29.421Z,104.22
2022-11-15T05:06:31.719Z,100.60
2022-11-15T05:08:33.575Z,106.88
2022-11-15T05:10:35.224Z,102.43
2022-11-15T05:12:37.246Z,110.75
2022-11-15T05:14:38.853Z,118.10
2022-11-15T05:16:40.722Z,115.05
2022-11-15T05:18:42.526Z,120.93
2022-11-15T05:20:44.194Z,113.88
2022-11-15T05:22:45.855Z,125.93
2022-11-15T05:24:47.486Z,107.75
2022-11-15T05:26:49.155Z,94.18
2022-11-15T05:28:57.962Z,95.40
2022-11-15T05:31:03.654Z,105.85
2022-11-15T05:33:05.550Z,88.75
2022-11-15T05:35:08.405Z,76.38
2022-11-15T05:37:10.106Z,78.40
2022-11-15T05:39:11.819Z,85.60
2022-11-15T05:41:14.085Z,77.57
2022-11-15T05:43:15.748Z,72.38
2022-11-15T05:45:21.285Z,85.68
2022-11-15T05:47:27.808Z,75.22
2022-11-15T05:49:33.482Z,81.38
2022-11-15T05:51:35.337Z,81.75
2022-11-15T05:53:37.747Z,94.22
2022-11-15T05:55:40.380Z,93.07
2022-11-15T05:57:42.243Z,96.05
2022-11-15T05:59:44.535Z,104.32
2022-11-15T06:01:46.225Z,98.53
2022-11-15T06:03:48.020Z,99.72
2022-11-15T06:05:49.601Z,106.20
2022-11-15T06:07:51.316Z,116.30
2022-11-15T06:09:52.991Z,114.07
2022-11-15T06:11:54.646Z,95.80
2022-11-15T06:13:57.438Z,120.03
2022-11-15T06:15:59.540Z,117.68
2022-11-15T06:18:01.371Z,115.05
2022-11-15T06:20:03.186Z,139.35
2022-11-15T06:22:04.904Z,130.13
2022-11-15T06:24:06.998Z,129.10
2022-11-15T06:26:08.633Z,145.65
2022-11-15T06:28:10.259Z,141.52
2022-11-15T06:30:11.916Z,132.95
2022-11-15T06:32:13.542Z,144.75
2022-11-15T06:34:15.396Z,132.15
2022-11-15T06:36:18.259Z,133.73
2022-11-15T06:38:20.152Z,153.47
2022-11-15T06:40:21.874Z,146.93
2022-11-15T06:42:23.461Z,190.30
2022-11-15T06:44:25.113Z,167.15
2022-11-15T06:46:26.868Z,165.90
2022-11-15T06:48:29.351Z,171.15
2022-11-15T06:50:31.045Z,159.32
2022-11-15T06:52:33.648Z,170.95
2022-11-15T06:54:35.240Z,145.93
2022-11-15T06:56:36.838Z,139.88
2022-11-15T06:58:38.695Z,139.27
2022-11-15T07:00:40.610Z,136.57
2022-11-15T07:02:42.235Z,145.85
2022-11-15T07:04:43.923Z,151.20
2022-11-15T07:06:48.821Z,138.30
2022-11-15T07:08:50.673Z,133.63
2022-11-15T07:10:53.039Z,140.50
2022-11-15T07:12:55.347Z,135.70
2022-11-15T07:14:57.126Z,132.98
2022-11-15T07:16:58.825Z,138.20
2022-11-15T07:19:00.465Z,119.93
2022-11-15T07:21:07.090Z,109.80
2022-11-15T07:23:08.724Z,112.30
2022-11-15T07:25:10.704Z,115.68
2022-11-15T07:27:12.425Z,108.55
2022-11-15T07:29:14.404Z,112.10
2022-11-15T07:31:16.183Z,105.38
2022-11-15T07:33:17.762Z,109.50
2022-11-15T07:35:19.389Z,99.75
2022-11-15T07:37:21.075Z,100.93
2022-11-15T07:39:22.788Z,107.50
2022-11-15T07:41:24.500Z,102.50
2022-11-15T07:43:28.985Z,101.03
2022-11-15T07:45:30.979Z,101.80
2022-11-15T07:47:32.616Z,97.55
2022-11-15T07:49:34.314Z,109.70
2022-11-15T07:51:35.928Z,98.28
2022-11-15T07:53:37.576Z,97.13
2022-11-15T07:55:41.683Z,97.30
2022-11-15T07:57:43.304Z,114.93
2022-11-15T07:59:44.903Z,113.95
2022-11-15T08:01:46.570Z,113.35
2022-11-15T08:03:48.368Z,117.50
2022-11-15T08:05:53.327Z,108.47
2022-11-15T08:07:57.036Z,112.90
2022-11-15T08:09:59.513Z,131.30
2022-11-15T08:12:01.446Z,128.02
2022-11-15T08:14:03.095Z,136.68
2022-11-15T08:16:06.675Z,132.38
2022-11-15T08:18:12.764Z,135.07
2022-11-15T08:20:14.713Z,135.27
2022-11-15T08:22:16.327Z,135.52
2022-11-15T08:24:17.921Z,134.93
2022-11-15T08:26:19.704Z,147.52
2022-11-15T08:28:22.038Z,133.07
2022-11-15T08:30:24.983Z,136.63
2022-11-15T08:32:26.619Z,140.17
2022-11-15T08:34:28.260Z,142.07
2022-11-15T08:36:34.783Z,153.02
2022-11-15T08:38:43.728Z,144.50
2022-11-15T08:40:45.337Z,149.48
2022-11-15T08:42:48.019Z,145.88
2022-11-15T08:44:49.628Z,143.27
2022-11-15T08:46:51.487Z,132.50
2022-11-15T08:48:53.073Z,123.70
2022-11-15T08:50:56.318Z,131.52
2022-11-15T08:52:58.017Z,124.45
2022-11-15T08:54:59.683Z,127.82
2022-11-15T08:57:01.306Z,124.97
2022-11-15T08:59:02.900Z,117.88
2022-11-15T09:01:05.554Z,123.90
2022-11-15T09:03:08.332Z,131.20
2022-11-15T09:05:09.945Z,128.52
2022-11-15T09:07:12.507Z,126.13
2022-11-15T09:09:14.280Z,130.10
2022-11-15T09:11:17.560Z,121.63
2022-11-15T09:13:19.222Z,139.00
2022-11-15T09:15:20.894Z,132.27
2022-11-15T09:17:25.059Z,129.15
2022-11-15T09:19:27.195Z,140.65
2022-11-15T09:21:30.607Z,144.13
2022-11-15T09:23:32.224Z,137.50
2022-11-15T09:25:34.140Z,129.07
2022-11-15T09:29:55.528Z,139.23
2022-11-15T09:31:57.094Z,126.70
2022-11-15T09:33:58.988Z,135.23
2022-11-15T09:36:09.051Z,114.60
2022-11-15T09:38:10.666Z,136.23
2022-11-15T09:40:18.554Z,123.80
2022-11-15T09:42:36.708Z,123.53
2022-11-15T09:44:51.335Z,118.65
2022-11-15T09:47:01.946Z,112.40
2022-11-15T09:49:04.426Z,121.47
2022-11-15T09:51:10.320Z,118.72
2022-11-15T09:54:13.607Z,108.60
2022-11-15T09:56:17.230Z,104.15
2022-11-15T09:58:37.131Z,102.45
2022-11-15T10:00:49.727Z,105.07
2022-11-15T10:03:13.006Z,99.07
2022-11-15T10:05:19.731Z,109.13
2022-11-15T10:07:34.321Z,109.70
2022-11-15T10:10:04.341Z,115.15
2022-11-15T10:12:07.347Z,113.55
2022-11-15T10:14:24.777Z,119.33
2022-11-15T10:16:53.068Z,112.65
2022-11-15T10:19:15.796Z,117.97
2022-11-15T10:21:21.462Z,124.32
2022-11-15T10:23:24.056Z,111.93
2022-11-15T10:25:28.242Z,110.85
2022-11-15T10:27:30.579Z,122.97
2022-11-15T10:29:32.178Z,116.72
2022-11-15T10:31:33.797Z,124.80
2022-11-15T10:33:40.051Z,115.68
2022-11-15T10:35:42.586Z,119.50
2022-11-15T10:37:44.197Z,119.20
2022-11-15T10:42:19.820Z,125.57
2022-11-15T10:44:23.073Z,109.05
2022-11-15T10:46:45.479Z,103.88
2022-11-15T10:48:47.402Z,97.15
2022-11-15T10:50:50.095Z,95.50
2022-11-15T10:52:51.776Z,96.30
2022-11-15T10:55:05.790Z,97.78
2022-11-15T10:57:16.455Z,93.38
2022-11-15T10:59:38.759Z,88.53
2022-11-15T11:01:47.441Z,88.93
2022-11-15T11:04:08.640Z,88.75
2022-11-15T11:06:18.228Z,85.70
2022-11-15T11:08:24.717Z,81.38
2022-11-15T11:10:50.457Z,86.07
2022-11-15T11:12:48.874Z,92.80
2022-11-15T11:14:50.471Z,83.32
2022-11-15T11:16:56.944Z,83.38
2022-11-15T11:19:24.784Z,91.15
2022-11-15T11:21:48.068Z,83.85
2022-11-15T11:23:53.949Z,85.97
2022-11-15T11:26:26.768Z,79.18
2022-11-15T11:28:41.673Z,80.22
2022-11-15T11:31:11.277Z,79.53
2022-11-15T11:33:23.047Z,102.10
2022-11-15T11:35:49.088Z,92.72
2022-11-15T11:38:11.083Z,90.15
2022-11-15T11:40:40.653Z,102.22
2022-11-15T11:42:49.209Z,106.72
2022-11-15T11:45:24.744Z,103.50
2022-11-15T11:47:34.724Z,102.72
2022-11-15T11:50:02.012Z,97.05
2022-11-15T11:52:09.704Z,114.85
2022-11-15T11:54:20.565Z,101.93
2022-11-15T11:56:36.511Z,108.18
2022-11-15T11:58:41.505Z,108.00
2022-11-15T12:00:53.166Z,101.45
2022-11-15T12:03:15.720Z,110.20
2022-11-15T12:05:43.329Z,107.13
2022-11-15T12:07:46.108Z,108.82
2022-11-15T12:10:03.215Z,104.15
2022-11-15T12:12:13.870Z,100.70
2022-11-15T12:14:53.224Z,98.93
2022-11-15T12:16:54.858Z,105.28
2022-11-15T12:19:01.165Z,102.75
2022-11-15T12:21:28.845Z,106.20
2022-11-15T12:23:34.165Z,96.65
2022-11-15T12:25:36.373Z,103.10
2022-11-15T12:27:51.987Z,101.80
2022-11-15T12:30:17.787Z,94.80
2022-11-15T12:32:32.775Z,99.88
2022-11-15T12:34:41.957Z,93.43
2022-11-15T12:36:46.546Z,100.20
2022-11-15T12:38:56.890Z,90.13
2022-11-15T12:41:18.960Z,92.68
2022-11-15T12:43:20.602Z,82.53
2022-11-15T12:45:37.789Z,90.82
2022-11-15T12:47:39.399Z,96.45
2022-11-15T12:49:40.946Z,93.55
2022-11-15T12:51:48.530Z,83.10
2022-11-15T12:53:50.351Z,91.07
2022-11-15T12:56:04.162Z,90.60
2022-11-15T12:58:29.302Z,85.63
2022-11-15T13:00:40.243Z,90.00
2022-11-15T13:02:46.481Z,90.47
2022-11-15T13:04:48.893Z,88.05
2022-11-15T13:07:08.560Z,86.70
2022-11-15T13:09:28.729Z,93.80
2022-11-15T13:12:09.175Z,98.07
2022-11-15T13:14:36.051Z,95.03
2022-11-15T13:16:38.197Z,90.97
2022-11-15T13:18:41.168Z,85.65
2022-11-15T13:20:45.942Z,88.23
2022-11-15T13:23:00.585Z,91.10
2022-11-15T13:25:02.766Z,96.15
2022-11-15T13:27:13.991Z,93.57
2022-11-15T13:29:20.383Z,86.13
2022-11-15T13:31:44.473Z,85.63
2022-11-15T13:33:46.343Z,90.03
2022-11-15T13:35:56.328Z,91.53
2022-11-15T13:38:04.955Z,89.90
2022-11-15T13:40:31.124Z,84.85
2022-11-15T13:42:32.916Z,93.53
2022-11-15T13:44:34.823Z,83.30
2022-11-15T13:46:36.599Z,88.90
2022-11-15T13:48:38.415Z,84.82
2022-11-15T13:50:40.402Z,88.15
2022-11-15T13:52:44.277Z,85.13
2022-11-15T13:57:02.237Z,84.20
2022-11-15T13:59:11.530Z,86.55
2022-11-15T14:01:20.777Z,82.70
2022-11-15T14:03:27.108Z,88.95
2022-11-15T14:05:28.858Z,85.35
2022-11-15T14:07:30.960Z,81.22
2022-11-15T14:09:34.477Z,86.60
2022-11-15T14:11:36.304Z,93.93
2022-11-15T14:13:38.002Z,90.97
2022-11-15T14:15:40.223Z,92.28
2022-11-15T14:17:47.200Z,88.07
2022-11-15T14:19:52.271Z,95.22
2022-11-15T14:22:16.075Z,97.97
2022-11-15T14:24:22.288Z,102.22
2022-11-15T14:26:28.669Z,91.28
2022-11-15T14:28:37.554Z,88.68
2022-11-15T14:30:44.159Z,94.75
2022-11-15T14:32:50.465Z,107.47
2022-11-15T14:35:03.729Z,100.38
2022-11-15T14:37:05.517Z,104.07
2022-11-15T14:39:07.220Z,98.10
2022-11-15T14:41:19.488Z,110.65
2022-11-15T14:43:21.137Z,111.20
2022-11-15T14:45:23.246Z,107.15
2022-11-15T14:47:24.856Z,100.40
2022-11-15T14:49:26.559Z,100.30
2022-11-15T14:51:28.182Z,104.45
2022-11-15T14:53:29.910Z,109.55
2022-11-15T14:55:37.260Z,107.50
2022-11-15T14:57:38.957Z,107.95
2022-11-15T14:59:40.594Z,104.43
2022-11-15T15:01:42.408Z,104.15
2022-11-15T15:03:45.188Z,103.85
2022-11-15T15:05:47.035Z,110.97
2022-11-15T15:07:49.449Z,124.68
2022-11-15T15:09:51.213Z,131.32
2022-11-15T15:11:55.693Z,147.35
2022-11-15T15:13:59.248Z,151.32
2022-11-15T15:16:00.878Z,136.40
2022-11-15T15:18:03.606Z,121.38
2022-11-15T15:20:05.659Z,122.40
2022-11-15T15:22:09.681Z,112.40
2022-11-15T15:24:17.430Z,106.43
2022-11-15T15:26:19.136Z,107.88
2022-11-15T15:28:20.831Z,101.20
2022-11-15T15:30:28.373Z,111.70
2022-11-15T15:32:30.133Z,93.45
2022-11-15T15:34:31.921Z,99.93
2022-11-15T15:36:33.534Z,93.55
2022-11-15T15:38:35.657Z,93.40
2022-11-15T15:40:37.458Z,96.25
2022-11-15T15:42:39.060Z,94.75
2022-11-15T15:44:40.729Z,91.90
2022-11-15T15:46:42.334Z,94.88
2022-11-15T15:48:44.884Z,97.78
2022-11-15T15:50:46.576Z,104.82
2022-11-15T15:52:48.454Z,102.85
2022-11-15T15:54:50.165Z,97.93
2022-11-15T15:56:56.085Z,100.07
2022-11-15T15:58:58.002Z,113.32
2022-11-15T16:00:59.779Z,102.63
2022-11-15T16:03:01.806Z,105.95
2022-11-15T16:05:03.868Z,100.22
2022-11-15T16:07:05.558Z,101.03
2022-11-15T16:09:15.023Z,98.13
2022-11-15T16:11:18.027Z,105.47
2022-11-15T16:13:19.743Z,105.35
2022-11-15T16:15:22.682Z,111.30
2022-11-15T16:17:32.851Z,104.07
2022-11-15T16:19:35.734Z,105.78
2022-11-15T16:21:37.536Z,103.90
2022-11-15T16:23:40.193Z,109.25
2022-11-15T16:25:43.201Z,102.25
2022-11-15T16:27:46.071Z,108.97
2022-11-15T16:29:48.344Z,100.88
2022-11-15T16:31:49.992Z,110.38
2022-11-15T16:33:51.639Z,109.32
2022-11-15T16:35:53.280Z,108.60
2022-11-15T16:37:55.182Z,104.45
2022-11-15T16:40:00.818Z,105.53
2022-11-15T16:42:03.552Z,128.55
2022-11-15T16:44:05.161Z,153.13
2022-11-15T16:46:20.355Z,161.77
2022-11-15T16:48:28.439Z,157.05
2022-11-15T16:50:32.891Z,156.23
2022-11-15T16:52:34.558Z,153.13
2022-11-15T16:54:38.540Z,150.50
2022-11-15T16:56:40.636Z,129.23
2022-11-15T16:58:53.103Z,129.07
2022-11-15T17:00:58.872Z,126.78
2022-11-15T17:03:00.523Z,119.80
2022-11-15T17:05:07.058Z,120.82
2022-11-15T17:07:11.674Z,119.80
2022-11-15T17:09:24.493Z,108.57
2022-11-15T17:11:26.221Z,115.20
2022-11-15T17:13:27.889Z,104.60
2022-11-15T17:15:29.548Z,98.68
2022-11-15T17:17:31.831Z,93.88
2022-11-15T17:19:33.612Z,106.15
2022-11-15T17:21:35.165Z,93.13
2022-11-15T17:23:36.906Z,98.07
2022-11-15T17:25:38.578Z,103.40
2022-11-15T17:27:40.707Z,106.57
2022-11-15T17:29:42.727Z,99.07
2022-11-15T17:31:44.702Z,110.55
2022-11-15T17:33:46.289Z,96.55
2022-11-15T17:35:58.398Z,97.43
2022-11-15T17:38:00.019Z,102.32
2022-11-15T17:40:01.711Z,100.93
2022-11-15T17:42:03.366Z,109.40
2022-11-15T17:44:05.193Z,104.78
2022-11-15T17:46:13.255Z,112.30
2022-11-15T17:48:14.973Z,99.18
2022-11-15T17:50:18.051Z,121.88
2022-11-15T17:52:19.948Z,140.20
2022-11-15T17:54:21.664Z,141.48
2022-11-15T17:56:24.820Z,147.02
2022-11-15T17:58:26.576Z,156.50
2022-11-15T18:00:28.239Z,156.88
2022-11-15T18:02:30.556Z,155.95
2022-11-15T18:04:32.299Z,166.50
2022-11-15T18:06:35.149Z,178.27
2022-11-15T18:08:37.811Z,164.88
2022-11-15T18:10:39.626Z,173.15
2022-11-15T18:12:41.243Z,170.50
2022-11-15T18:14:43.073Z,167.23
2022-11-15T18:16:44.810Z,164.32
2022-11-15T18:18:46.609Z,169.50
2022-11-15T18:20:48.201Z,156.63
2022-11-15T18:22:53.218Z,193.60
2022-11-15T18:24:54.975Z,218.15
2022-11-15T18:26:57.958Z,222.18
2022-11-15T18:29:04.577Z,208.87
2022-11-15T18:31:16.844Z,203.02
2022-11-15T18:33:19.624Z,230.52
2022-11-15T18:35:21.273Z,246.73
2022-11-15T18:37:22.988Z,208.07
2022-11-15T18:39:24.656Z,225.68
2022-11-15T18:41:29.871Z,230.52
2022-11-15T18:43:31.828Z,257.02
2022-11-15T18:45:36.556Z,247.32
2022-11-15T18:47:38.181Z,244.88
2022-11-15T18:49:39.897Z,223.02
2022-11-15T18:51:44.401Z,217.50
2022-11-15T18:53:46.405Z,225.60
2022-11-15T18:55:48.004Z,226.05
2022-11-15T18:57:49.579Z,224.15
2022-11-15T18:59:51.276Z,228.75
2022-11-15T19:01:53.049Z,234.50
2022-11-15T19:03:56.909Z,211.10
2022-11-15T19:08:42.109Z,219.25
2022-11-15T19:10:43.751Z,226.30
2022-11-15T19:12:47.216Z,223.00
2022-11-15T19:14:48.931Z,219.82
2022-11-15T19:16:52.450Z,232.63
2022-11-15T19:18:58.873Z,210.52
2022-11-15T19:21:04.636Z,215.63
2022-11-15T19:23:06.492Z,209.07
2022-11-15T19:25:08.821Z,223.00
2022-11-15T19:27:10.509Z,228.27
2022-11-15T19:29:12.297Z,221.55
2022-11-15T19:31:15.439Z,225.82
2022-11-15T19:33:17.254Z,225.88
2022-11-15T19:35:18.954Z,224.32
2022-11-15T19:37:20.563Z,219.05
2022-11-15T19:39:22.382Z,230.77
2022-11-15T19:41:25.254Z,221.85
2022-11-15T19:43:27.325Z,211.38
2022-11-15T19:45:29.041Z,193.95
2022-11-15T19:47:30.730Z,205.93
2022-11-15T19:49:32.421Z,201.38
2022-11-15T19:51:34.121Z,188.90
2022-11-15T19:53:36.737Z,190.43
2022-11-15T19:55:38.644Z,193.45
2022-11-15T19:57:40.260Z,179.05
2022-11-15T19:59:41.888Z,186.90
2022-11-15T20:01:43.744Z,182.38
2022-11-15T20:03:46.040Z,173.68
2022-11-15T20:05:47.751Z,178.32
2022-11-15T20:07:49.472Z,170.82
2022-11-15T20:09:51.066Z,164.98
2022-11-15T20:11:52.879Z,188.13
2022-11-15T20:13:59.019Z,179.23
2022-11-15T20:16:00.799Z,186.57
2022-11-15T20:18:02.513Z,167.90
2022-11-15T20:20:04.703Z,169.23
2022-11-15T20:22:06.252Z,169.75
2022-11-15T20:24:08.380Z,163.77
2022-11-15T20:26:10.756Z,159.50
2022-11-15T20:28:26.343Z,165.65
2022-11-15T20:30:28.000Z,163.55
2022-11-15T20:32:31.172Z,159.30
2022-11-15T20:34:32.832Z,150.88
2022-11-15T20:36:34.499Z,154.23
2022-11-15T20:38:36.399Z,144.88
2022-11-15T20:40:39.368Z,154.90
2022-11-15T20:42:41.187Z,155.90
2022-11-15T20:44:42.748Z,154.68
2022-11-15T20:46:44.491Z,161.02
2022-11-15T20:48:46.140Z,151.45
2022-11-15T20:50:48.019Z,156.23
2022-11-15T20:52:49.723Z,149.10
2022-11-15T20:54:51.402Z,142.70
2022-11-15T20:56:53.070Z,149.98
2022-11-15T20:58:56.504Z,149.05
2022-11-15T21:00:58.367Z,138.90
2022-11-15T21:03:00.039Z,151.10
2022-11-15T21:05:02.305Z,147.15
2022-11-15T21:07:04.502Z,158.48
2022-11-15T21:09:24.845Z,148.23
2022-11-15T21:11:44.876Z,157.60
2022-11-15T21:13:46.521Z,147.60
2022-11-15T21:15:48.557Z,152.00
2022-11-15T21:17:50.232Z,159.85
2022-11-15T21:19:51.951Z,144.38
2022-11-15T21:21:53.696Z,166.95
2022-11-15T21:23:55.249Z,163.10
2022-11-15T21:25:56.996Z,144.30
2022-11-15T21:27:58.650Z,138.73
2022-11-15T21:30:00.339Z,154.55
2022-11-15T21:32:06.837Z,164.77
2022-11-15T21:34:08.811Z,179.88
2022-11-15T21:36:10.426Z,158.30
2022-11-15T21:38:12.113Z,153.98
2022-11-15T21:40:13.791Z,144.45
2022-11-15T21:42:15.413Z,135.85
2022-11-15T21:44:17.197Z,143.02
2022-11-15T21:46:18.827Z,146.15
2022-11-15T21:48:20.557Z,139.85
2022-11-15T21:50:22.530Z,136.50
2022-11-15T21:52:28.483Z,143.57
2022-11-15T21:54:30.112Z,130.57
2022-11-15T21:56:32.441Z,147.43
2022-11-15T21:58:34.810Z,146.60
2022-11-15T22:00:55.453Z,144.73
2022-11-15T22:02:57.138Z,143.77
2022-11-15T22:04:58.961Z,133.93
2022-11-15T22:07:00.589Z,144.38
2022-11-15T22:09:03.127Z,139.23
2022-11-15T22:11:04.855Z,136.43
2022-11-15T22:13:06.539Z,135.73
2022-11-15T22:15:08.420Z,140.40
2022-11-15T22:17:13.205Z,139.55
2022-11-15T22:19:15.105Z,125.75
2022-11-15T22:21:17.940Z,139.00
2022-11-15T22:23:19.703Z,143.02
2022-11-15T22:25:21.396Z,131.43
2022-11-15T22:27:23.105Z,130.63
2022-11-15T22:29:24.809Z,140.95
2022-11-15T22:31:26.624Z,129.88
2022-11-15T22:33:30.092Z,141.82
2022-11-15T22:35:31.873Z,139.52
2022-11-15T22:37:33.648Z,141.77
2022-11-15T22:39:35.335Z,133.80
2022-11-15T22:41:37.102Z,135.10
2022-11-15T22:43:38.742Z,133.82
2022-11-15T22:45:50.475Z,144.35
2022-11-15T22:47:52.257Z,130.90
2022-11-15T22:49:53.954Z,136.93
2022-11-15T22:51:55.634Z,144.55
2022-11-15T22:53:57.576Z,144.13
2022-11-15T22:56:01.236Z,145.07
2022-11-15T22:58:02.930Z,150.25
2022-11-15T23:00:11.242Z,143.43
2022-11-15T23:02:12.916Z,146.85
2022-11-15T23:04:14.701Z,152.15
2022-11-15T23:06:16.854Z,153.65
2022-11-15T23:08:19.468Z,142.93
2022-11-15T23:10:39.677Z,144.95
2022-11-15T23:13:00.113Z,159.27
2022-11-15T23:15:01.930Z,156.55
2022-11-15T23:17:03.873Z,163.55
2022-11-15T23:19:08.468Z,149.70
2022-11-15T23:21:14.110Z,143.40
2022-11-15T23:23:15.749Z,142.98
2022-11-15T23:25:17.502Z,145.90
2022-11-15T23:27:20.819Z,138.73
2022-11-15T23:29:24.941Z,151.98
2022-11-15T23:31:45.438Z,137.85
2022-11-15T23:33:59.060Z,135.95
2022-11-15T23:36:00.849Z,138.98
2022-11-15T23:38:02.557Z,136.35
2022-11-15T23:40:05.354Z,138.82
2022-11-15T23:42:09.296Z,138.57
2022-11-15T23:44:11.481Z,135.57
2022-11-15T23:46:13.305Z,155.70
2022-11-15T23:48:14.982Z,138.15
2022-11-15T23:50:17.183Z,129.55
2022-11-15T23:52:19.003Z,149.20
2022-11-15T23:54:20.831Z,144.70
2022-11-15T23:56:23.008Z,151.05
2022-11-15T23:58:24.703Z,154.48
